FK-0028 weather

Weddell Island Airport
Weddell Island, Falkland Islands

Public forecast

Using degrees Celsius for public forecast. Weather courtesy of forecast.io.

METAR (pilot weather report)

Closest report is Mount Pleasant Airport, 91.2 nm (169.0 km) E. Retrieved 2019/09/19 04:50 UTC (1 hour ago):

EGYP 190450Z 09004KT 9999 -RA BKN009 BKN024 02/02 Q0981

TAF (pilot weather forecast)

Closest forecast is Mount Pleasant Airport, 91.2 nm (169.0 km) E. Retrieved 2019/09/19 03:53 UTC (2 hours ago):

TAF EGYP 190141Z 1903/1921 04009KT 9999 FEW007 BKN025 TEMPO 1903/1915 4000 RADZ SCT005 BKN007 PROB40 TEMPO 1903/1907 3000 -DZ SCT004 BKN006 PROB40 TEMPO 1907/1912 2000 DZ RASN BKN004 OVC008 TEMPO 1915/1921 4000 SHRASN SCT014CB